sensor_id;sensor_type;location;lat;lon;timestamp;P1;durP1;ratioP1;P2;durP2;ratioP2
6111;SDS011;3086;48.802;9.394;2022-07-10T00:02:37;6.33;;;4.87;;
6111;SDS011;3086;48.802;9.394;2022-07-10T00:05:59;5.87;;;4.53;;
6111;SDS011;3086;48.802;9.394;2022-07-10T00:09:22;5.37;;;4.87;;
6111;SDS011;3086;48.802;9.394;2022-07-10T00:12:44;5.47;;;4.60;;
6111;SDS011;3086;48.802;9.394;2022-07-10T00:16:05;4.77;;;4.37;;
6111;SDS011;3086;48.802;9.394;2022-07-10T00:19:27;4.70;;;4.30;;
6111;SDS011;3086;48.802;9.394;2022-07-10T00:22:49;5.10;;;4.70;;
6111;SDS011;3086;48.802;9.394;2022-07-10T00:26:12;5.43;;;4.70;;
6111;SDS011;3086;48.802;9.394;2022-07-10T00:29:33;6.00;;;5.50;;
6111;SDS011;3086;48.802;9.394;2022-07-10T00:32:55;7.27;;;6.50;;
6111;SDS011;3086;48.802;9.394;2022-07-10T00:36:16;6.27;;;5.43;;
6111;SDS011;3086;48.802;9.394;2022-07-10T00:39:38;7.20;;;6.47;;
6111;SDS011;3086;48.802;9.394;2022-07-10T00:43:01;7.03;;;6.37;;
6111;SDS011;3086;48.802;9.394;2022-07-10T00:46:22;6.90;;;6.40;;
6111;SDS011;3086;48.802;9.394;2022-07-10T00:49:45;7.17;;;5.90;;
6111;SDS011;3086;48.802;9.394;2022-07-10T00:53:06;7.60;;;6.70;;
6111;SDS011;3086;48.802;9.394;2022-07-10T00:56:28;6.63;;;5.97;;
6111;SDS011;3086;48.802;9.394;2022-07-10T00:59:51;6.40;;;5.90;;
6111;SDS011;3086;48.802;9.394;2022-07-10T01:03:13;6.87;;;5.33;;
6111;SDS011;3086;48.802;9.394;2022-07-10T01:06:34;5.97;;;5.57;;
6111;SDS011;3086;48.802;9.394;2022-07-10T01:09:56;7.00;;;6.23;;
6111;SDS011;3086;48.802;9.394;2022-07-10T01:13:19;9.30;;;6.47;;
6111;SDS011;3086;48.802;9.394;2022-07-10T01:16:42;6.80;;;5.93;;
6111;SDS011;3086;48.802;9.394;2022-07-10T01:20:04;6.57;;;5.83;;
6111;SDS011;3086;48.802;9.394;2022-07-10T01:23:28;6.90;;;6.20;;
6111;SDS011;3086;48.802;9.394;2022-07-10T01:26:50;6.93;;;6.33;;
6111;SDS011;3086;48.802;9.394;2022-07-10T01:30:11;5.80;;;5.30;;
6111;SDS011;3086;48.802;9.394;2022-07-10T01:33:33;6.37;;;5.63;;
6111;SDS011;3086;48.802;9.394;2022-07-10T01:36:54;6.67;;;5.80;;
6111;SDS011;3086;48.802;9.394;2022-07-10T01:40:17;6.90;;;6.30;;
6111;SDS011;3086;48.802;9.394;2022-07-10T01:43:39;5.80;;;5.20;;
6111;SDS011;3086;48.802;9.394;2022-07-10T01:47:02;5.87;;;5.30;;
6111;SDS011;3086;48.802;9.394;2022-07-10T01:50:24;5.90;;;5.30;;
6111;SDS011;3086;48.802;9.394;2022-07-10T01:53:46;5.87;;;5.37;;
6111;SDS011;3086;48.802;9.394;2022-07-10T01:57:09;5.63;;;5.13;;
6111;SDS011;3086;48.802;9.394;2022-07-10T02:00:30;6.53;;;5.67;;
6111;SDS011;3086;48.802;9.394;2022-07-10T02:03:52;6.50;;;5.90;;
6111;SDS011;3086;48.802;9.394;2022-07-10T02:07:31;7.97;;;6.83;;
6111;SDS011;3086;48.802;9.394;2022-07-10T02:10:53;6.77;;;5.60;;
6111;SDS011;3086;48.802;9.394;2022-07-10T02:14:16;5.90;;;5.30;;
6111;SDS011;3086;48.802;9.394;2022-07-10T02:17:38;6.00;;;5.47;;
6111;SDS011;3086;48.802;9.394;2022-07-10T02:20:59;10.37;;;5.87;;
6111;SDS011;3086;48.802;9.394;2022-07-10T02:24:22;6.70;;;6.03;;
6111;SDS011;3086;48.802;9.394;2022-07-10T02:27:43;6.63;;;6.07;;
6111;SDS011;3086;48.802;9.394;2022-07-10T02:31:06;6.30;;;5.70;;
6111;SDS011;3086;48.802;9.394;2022-07-10T02:34:28;6.30;;;5.80;;
6111;SDS011;3086;48.802;9.394;2022-07-10T02:37:49;7.03;;;6.33;;
6111;SDS011;3086;48.802;9.394;2022-07-10T02:41:11;6.03;;;5.53;;
6111;SDS011;3086;48.802;9.394;2022-07-10T02:44:32;6.80;;;6.20;;
6111;SDS011;3086;48.802;9.394;2022-07-10T02:47:55;6.13;;;5.63;;
6111;SDS011;3086;48.802;9.394;2022-07-10T02:51:17;5.60;;;5.10;;
6111;SDS011;3086;48.802;9.394;2022-07-10T02:54:39;5.67;;;5.17;;
6111;SDS011;3086;48.802;9.394;2022-07-10T02:58:00;5.47;;;5.07;;
6111;SDS011;3086;48.802;9.394;2022-07-10T03:01:22;6.10;;;5.50;;
6111;SDS011;3086;48.802;9.394;2022-07-10T03:04:45;7.30;;;6.43;;
6111;SDS011;3086;48.802;9.394;2022-07-10T03:08:06;6.13;;;5.63;;
6111;SDS011;3086;48.802;9.394;2022-07-10T03:11:28;6.90;;;5.93;;
6111;SDS011;3086;48.802;9.394;2022-07-10T03:14:59;6.37;;;5.70;;
6111;SDS011;3086;48.802;9.394;2022-07-10T03:18:20;6.97;;;6.30;;
6111;SDS011;3086;48.802;9.394;2022-07-10T03:21:44;7.00;;;6.30;;
6111;SDS011;3086;48.802;9.394;2022-07-10T03:25:06;7.33;;;6.67;;
6111;SDS011;3086;48.802;9.394;2022-07-10T03:28:28;8.30;;;7.20;;
6111;SDS011;3086;48.802;9.394;2022-07-10T03:31:51;8.30;;;7.00;;
6111;SDS011;3086;48.802;9.394;2022-07-10T03:35:13;8.37;;;7.37;;
6111;SDS011;3086;48.802;9.394;2022-07-10T03:38:36;6.80;;;6.20;;
6111;SDS011;3086;48.802;9.394;2022-07-10T03:41:57;8.67;;;7.87;;
6111;SDS011;3086;48.802;9.394;2022-07-10T03:45:19;8.43;;;7.63;;
6111;SDS011;3086;48.802;9.394;2022-07-10T03:48:40;9.20;;;7.70;;
6111;SDS011;3086;48.802;9.394;2022-07-10T03:52:02;8.20;;;7.50;;
6111;SDS011;3086;48.802;9.394;2022-07-10T03:55:26;8.83;;;7.93;;
6111;SDS011;3086;48.802;9.394;2022-07-10T03:58:48;9.23;;;8.20;;
6111;SDS011;3086;48.802;9.394;2022-07-10T04:02:10;8.80;;;7.93;;
6111;SDS011;3086;48.802;9.394;2022-07-10T04:05:32;9.33;;;7.10;;
6111;SDS011;3086;48.802;9.394;2022-07-10T04:08:54;8.80;;;8.00;;
6111;SDS011;3086;48.802;9.394;2022-07-10T04:12:17;9.57;;;7.87;;
6111;SDS011;3086;48.802;9.394;2022-07-10T04:15:39;9.13;;;8.23;;
6111;SDS011;3086;48.802;9.394;2022-07-10T04:19:00;9.80;;;7.93;;
6111;SDS011;3086;48.802;9.394;2022-07-10T04:22:21;9.20;;;7.77;;
6111;SDS011;3086;48.802;9.394;2022-07-10T04:25:43;8.17;;;7.33;;
6111;SDS011;3086;48.802;9.394;2022-07-10T04:29:06;8.00;;;7.20;;
6111;SDS011;3086;48.802;9.394;2022-07-10T04:32:28;8.33;;;7.63;;
6111;SDS011;3086;48.802;9.394;2022-07-10T04:35:49;10.27;;;7.77;;
6111;SDS011;3086;48.802;9.394;2022-07-10T04:39:27;11.07;;;7.10;;
6111;SDS011;3086;48.802;9.394;2022-07-10T04:42:49;8.53;;;7.03;;
6111;SDS011;3086;48.802;9.394;2022-07-10T04:46:12;7.27;;;6.53;;
6111;SDS011;3086;48.802;9.394;2022-07-10T04:49:34;7.30;;;6.60;;
6111;SDS011;3086;48.802;9.394;2022-07-10T04:52:56;7.17;;;6.07;;
6111;SDS011;3086;48.802;9.394;2022-07-10T04:56:18;7.83;;;6.90;;
6111;SDS011;3086;48.802;9.394;2022-07-10T04:59:39;9.80;;;6.47;;
6111;SDS011;3086;48.802;9.394;2022-07-10T05:03:03;8.33;;;6.40;;
6111;SDS011;3086;48.802;9.394;2022-07-10T05:06:28;8.47;;;6.40;;
6111;SDS011;3086;48.802;9.394;2022-07-10T05:09:50;6.47;;;5.73;;
6111;SDS011;3086;48.802;9.394;2022-07-10T05:13:11;8.17;;;6.07;;
6111;SDS011;3086;48.802;9.394;2022-07-10T05:16:34;6.97;;;6.07;;
6111;SDS011;3086;48.802;9.394;2022-07-10T05:19:57;7.53;;;6.60;;
6111;SDS011;3086;48.802;9.394;2022-07-10T05:23:19;5.83;;;5.17;;
6111;SDS011;3086;48.802;9.394;2022-07-10T05:26:40;6.57;;;5.53;;
6111;SDS011;3086;48.802;9.394;2022-07-10T05:30:02;6.20;;;5.60;;
6111;SDS011;3086;48.802;9.394;2022-07-10T05:33:24;5.20;;;4.70;;
6111;SDS011;3086;48.802;9.394;2022-07-10T05:36:47;6.70;;;5.27;;
6111;SDS011;3086;48.802;9.394;2022-07-10T05:40:09;6.80;;;5.40;;
6111;SDS011;3086;48.802;9.394;2022-07-10T05:43:32;5.80;;;5.20;;
6111;SDS011;3086;48.802;9.394;2022-07-10T05:46:53;5.97;;;5.30;;
6111;SDS011;3086;48.802;9.394;2022-07-10T05:50:15;6.50;;;5.47;;
6111;SDS011;3086;48.802;9.394;2022-07-10T05:53:38;6.30;;;5.47;;
6111;SDS011;3086;48.802;9.394;2022-07-10T05:56:59;6.30;;;4.97;;
6111;SDS011;3086;48.802;9.394;2022-07-10T06:00:22;5.50;;;4.73;;
6111;SDS011;3086;48.802;9.394;2022-07-10T06:03:43;5.53;;;4.00;;
6111;SDS011;3086;48.802;9.394;2022-07-10T06:07:06;4.60;;;4.20;;
6111;SDS011;3086;48.802;9.394;2022-07-10T06:10:30;5.93;;;3.53;;
6111;SDS011;3086;48.802;9.394;2022-07-10T06:13:51;5.57;;;3.87;;
6111;SDS011;3086;48.802;9.394;2022-07-10T06:17:13;6.30;;;3.87;;
6111;SDS011;3086;48.802;9.394;2022-07-10T06:20:34;5.00;;;3.57;;
6111;SDS011;3086;48.802;9.394;2022-07-10T06:23:56;7.00;;;3.70;;
6111;SDS011;3086;48.802;9.394;2022-07-10T06:27:20;5.00;;;3.37;;
6111;SDS011;3086;48.802;9.394;2022-07-10T06:30:41;4.97;;;3.23;;
6111;SDS011;3086;48.802;9.394;2022-07-10T06:34:03;4.83;;;3.00;;
6111;SDS011;3086;48.802;9.394;2022-07-10T06:37:24;3.87;;;2.80;;
6111;SDS011;3086;48.802;9.394;2022-07-10T06:40:46;4.70;;;3.10;;
6111;SDS011;3086;48.802;9.394;2022-07-10T06:44:10;4.53;;;3.00;;
6111;SDS011;3086;48.802;9.394;2022-07-10T06:47:31;5.83;;;3.00;;
6111;SDS011;3086;48.802;9.394;2022-07-10T06:51:10;4.33;;;3.17;;
6111;SDS011;3086;48.802;9.394;2022-07-10T06:54:32;4.70;;;3.10;;
6111;SDS011;3086;48.802;9.394;2022-07-10T06:57:54;5.03;;;2.80;;
6111;SDS011;3086;48.802;9.394;2022-07-10T07:01:18;3.57;;;2.80;;
6111;SDS011;3086;48.802;9.394;2022-07-10T07:04:39;2.97;;;2.40;;
6111;SDS011;3086;48.802;9.394;2022-07-10T07:08:01;2.87;;;2.33;;
6111;SDS011;3086;48.802;9.394;2022-07-10T07:11:22;3.57;;;2.57;;
6111;SDS011;3086;48.802;9.394;2022-07-10T07:14:44;3.17;;;2.43;;
6111;SDS011;3086;48.802;9.394;2022-07-10T07:18:08;4.63;;;2.20;;
6111;SDS011;3086;48.802;9.394;2022-07-10T07:21:32;2.80;;;2.07;;
6111;SDS011;3086;48.802;9.394;2022-07-10T07:25:12;4.23;;;2.53;;
6111;SDS011;3086;48.802;9.394;2022-07-10T07:28:33;7.20;;;2.67;;
6111;SDS011;3086;48.802;9.394;2022-07-10T07:31:55;4.73;;;2.20;;
6111;SDS011;3086;48.802;9.394;2022-07-10T07:35:19;3.07;;;1.73;;
6111;SDS011;3086;48.802;9.394;2022-07-10T07:38:41;4.40;;;2.00;;
6111;SDS011;3086;48.802;9.394;2022-07-10T07:42:03;2.30;;;1.90;;
6111;SDS011;3086;48.802;9.394;2022-07-10T07:45:25;3.20;;;2.10;;
6111;SDS011;3086;48.802;9.394;2022-07-10T07:48:47;5.63;;;2.07;;
6111;SDS011;3086;48.802;9.394;2022-07-10T07:52:11;2.40;;;1.97;;
6111;SDS011;3086;48.802;9.394;2022-07-10T07:55:34;3.03;;;2.30;;
6111;SDS011;3086;48.802;9.394;2022-07-10T07:58:56;5.23;;;2.23;;
6111;SDS011;3086;48.802;9.394;2022-07-10T08:02:19;2.87;;;1.90;;
6111;SDS011;3086;48.802;9.394;2022-07-10T08:05:41;3.97;;;2.20;;
6111;SDS011;3086;48.802;9.394;2022-07-10T08:09:04;3.57;;;2.10;;
6111;SDS011;3086;48.802;9.394;2022-07-10T08:12:26;2.60;;;2.00;;
6111;SDS011;3086;48.802;9.394;2022-07-10T08:15:47;3.67;;;2.00;;
6111;SDS011;3086;48.802;9.394;2022-07-10T08:19:09;4.10;;;2.17;;
6111;SDS011;3086;48.802;9.394;2022-07-10T08:22:31;3.77;;;1.83;;
6111;SDS011;3086;48.802;9.394;2022-07-10T08:25:54;3.03;;;1.90;;
6111;SDS011;3086;48.802;9.394;2022-07-10T08:29:15;3.90;;;1.93;;
6111;SDS011;3086;48.802;9.394;2022-07-10T08:32:37;2.50;;;1.80;;
6111;SDS011;3086;48.802;9.394;2022-07-10T08:36:00;3.90;;;1.73;;
6111;SDS011;3086;48.802;9.394;2022-07-10T08:39:21;2.13;;;1.63;;
6111;SDS011;3086;48.802;9.394;2022-07-10T08:42:47;2.00;;;1.80;;
6111;SDS011;3086;48.802;9.394;2022-07-10T08:46:10;4.70;;;2.30;;
6111;SDS011;3086;48.802;9.394;2022-07-10T08:49:33;3.27;;;1.80;;
6111;SDS011;3086;48.802;9.394;2022-07-10T08:52:58;4.43;;;1.87;;
6111;SDS011;3086;48.802;9.394;2022-07-10T08:56:21;4.10;;;1.83;;
6111;SDS011;3086;48.802;9.394;2022-07-10T08:59:44;2.93;;;1.80;;
6111;SDS011;3086;48.802;9.394;2022-07-10T09:03:07;5.17;;;1.70;;
6111;SDS011;3086;48.802;9.394;2022-07-10T09:06:28;3.00;;;1.90;;
6111;SDS011;3086;48.802;9.394;2022-07-10T09:09:51;2.73;;;2.10;;
6111;SDS011;3086;48.802;9.394;2022-07-10T09:13:15;5.17;;;2.30;;
6111;SDS011;3086;48.802;9.394;2022-07-10T09:16:38;3.33;;;1.93;;
6111;SDS011;3086;48.802;9.394;2022-07-10T09:20:01;15.97;;;14.27;;
6111;SDS011;3086;48.802;9.394;2022-07-10T09:23:23;12.37;;;7.70;;
6111;SDS011;3086;48.802;9.394;2022-07-10T09:26:48;21.47;;;13.80;;
6111;SDS011;3086;48.802;9.394;2022-07-10T09:30:30;44.70;;;30.93;;
6111;SDS011;3086;48.802;9.394;2022-07-10T09:33:54;37.80;;;33.80;;
6111;SDS011;3086;48.802;9.394;2022-07-10T09:37:23;57.93;;;40.20;;
6111;SDS011;3086;48.802;9.394;2022-07-10T09:40:47;3.83;;;2.10;;
6111;SDS011;3086;48.802;9.394;2022-07-10T09:44:08;2.33;;;1.90;;
6111;SDS011;3086;48.802;9.394;2022-07-10T09:47:31;2.17;;;1.60;;
6111;SDS011;3086;48.802;9.394;2022-07-10T09:50:54;3.53;;;1.60;;
6111;SDS011;3086;48.802;9.394;2022-07-10T09:54:16;3.10;;;1.90;;
6111;SDS011;3086;48.802;9.394;2022-07-10T09:57:38;2.37;;;1.90;;
6111;SDS011;3086;48.802;9.394;2022-07-10T10:01:01;3.03;;;1.80;;
6111;SDS011;3086;48.802;9.394;2022-07-10T10:04:23;2.60;;;1.70;;
6111;SDS011;3086;48.802;9.394;2022-07-10T10:07:47;3.87;;;2.60;;
6111;SDS011;3086;48.802;9.394;2022-07-10T10:11:09;2.40;;;1.70;;
6111;SDS011;3086;48.802;9.394;2022-07-10T10:14:38;3.40;;;1.77;;
6111;SDS011;3086;48.802;9.394;2022-07-10T10:18:02;2.37;;;1.80;;
6111;SDS011;3086;48.802;9.394;2022-07-10T10:21:25;1.57;;;1.47;;
6111;SDS011;3086;48.802;9.394;2022-07-10T10:24:47;1.33;;;1.20;;
6111;SDS011;3086;48.802;9.394;2022-07-10T10:28:09;1.90;;;1.67;;
6111;SDS011;3086;48.802;9.394;2022-07-10T10:31:32;3.13;;;1.40;;
6111;SDS011;3086;48.802;9.394;2022-07-10T10:34:55;6.27;;;1.73;;
6111;SDS011;3086;48.802;9.394;2022-07-10T10:38:17;4.93;;;1.90;;
6111;SDS011;3086;48.802;9.394;2022-07-10T10:41:40;3.00;;;1.63;;
6111;SDS011;3086;48.802;9.394;2022-07-10T10:45:21;1.93;;;1.40;;
6111;SDS011;3086;48.802;9.394;2022-07-10T10:48:53;3.47;;;1.40;;
6111;SDS011;3086;48.802;9.394;2022-07-10T10:52:27;2.47;;;1.50;;
6111;SDS011;3086;48.802;9.394;2022-07-10T10:59:59;2.30;;;1.17;;
6111;SDS011;3086;48.802;9.394;2022-07-10T11:03:28;4.60;;;1.67;;
6111;SDS011;3086;48.802;9.394;2022-07-10T11:06:51;4.33;;;1.47;;
6111;SDS011;3086;48.802;9.394;2022-07-10T11:10:26;2.53;;;1.50;;
6111;SDS011;3086;48.802;9.394;2022-07-10T11:13:49;3.13;;;1.60;;
6111;SDS011;3086;48.802;9.394;2022-07-10T11:17:13;4.73;;;1.57;;
6111;SDS011;3086;48.802;9.394;2022-07-10T11:20:51;2.27;;;1.57;;
6111;SDS011;3086;48.802;9.394;2022-07-10T11:24:16;2.20;;;1.67;;
6111;SDS011;3086;48.802;9.394;2022-07-10T11:27:52;1.87;;;1.30;;
6111;SDS011;3086;48.802;9.394;2022-07-10T11:31:22;2.83;;;1.40;;
6111;SDS011;3086;48.802;9.394;2022-07-10T11:34:46;2.00;;;1.30;;
6111;SDS011;3086;48.802;9.394;2022-07-10T11:38:07;3.10;;;1.17;;
6111;SDS011;3086;48.802;9.394;2022-07-10T11:41:29;1.40;;;1.20;;
6111;SDS011;3086;48.802;9.394;2022-07-10T11:44:51;1.97;;;1.40;;
6111;SDS011;3086;48.802;9.394;2022-07-10T11:48:16;2.30;;;1.77;;
6111;SDS011;3086;48.802;9.394;2022-07-10T11:51:40;1.93;;;1.67;;
6111;SDS011;3086;48.802;9.394;2022-07-10T11:55:13;2.90;;;1.83;;
6111;SDS011;3086;48.802;9.394;2022-07-10T11:58:35;3.07;;;1.50;;
6111;SDS011;3086;48.802;9.394;2022-07-10T12:01:57;4.03;;;1.90;;
6111;SDS011;3086;48.802;9.394;2022-07-10T12:05:31;4.70;;;1.90;;
6111;SDS011;3086;48.802;9.394;2022-07-10T12:08:55;2.30;;;1.60;;
6111;SDS011;3086;48.802;9.394;2022-07-10T12:12:16;3.90;;;1.47;;
6111;SDS011;3086;48.802;9.394;2022-07-10T12:15:44;3.10;;;1.70;;
6111;SDS011;3086;48.802;9.394;2022-07-10T12:19:07;2.80;;;1.53;;
6111;SDS011;3086;48.802;9.394;2022-07-10T12:22:29;2.37;;;1.40;;
6111;SDS011;3086;48.802;9.394;2022-07-10T12:25:53;2.60;;;1.53;;
6111;SDS011;3086;48.802;9.394;2022-07-10T12:29:19;2.17;;;1.53;;
6111;SDS011;3086;48.802;9.394;2022-07-10T12:32:42;2.00;;;1.20;;
6111;SDS011;3086;48.802;9.394;2022-07-10T12:36:04;3.47;;;1.50;;
6111;SDS011;3086;48.802;9.394;2022-07-10T12:39:26;3.47;;;1.80;;
6111;SDS011;3086;48.802;9.394;2022-07-10T12:42:49;4.87;;;1.73;;
6111;SDS011;3086;48.802;9.394;2022-07-10T12:46:11;3.67;;;1.70;;
6111;SDS011;3086;48.802;9.394;2022-07-10T12:49:47;3.90;;;1.50;;
6111;SDS011;3086;48.802;9.394;2022-07-10T12:53:10;1.83;;;1.60;;
6111;SDS011;3086;48.802;9.394;2022-07-10T12:56:34;2.97;;;1.50;;
6111;SDS011;3086;48.802;9.394;2022-07-10T13:00:03;2.70;;;1.50;;
6111;SDS011;3086;48.802;9.394;2022-07-10T13:03:26;5.87;;;1.90;;
6111;SDS011;3086;48.802;9.394;2022-07-10T13:06:50;2.10;;;1.30;;
6111;SDS011;3086;48.802;9.394;2022-07-10T13:10:11;2.50;;;1.10;;
6111;SDS011;3086;48.802;9.394;2022-07-10T13:13:33;1.90;;;1.10;;
6111;SDS011;3086;48.802;9.394;2022-07-10T13:16:56;2.40;;;1.30;;
6111;SDS011;3086;48.802;9.394;2022-07-10T13:20:17;1.73;;;1.40;;
6111;SDS011;3086;48.802;9.394;2022-07-10T13:23:39;2.00;;;1.50;;
6111;SDS011;3086;48.802;9.394;2022-07-10T13:27:02;5.47;;;1.80;;
6111;SDS011;3086;48.802;9.394;2022-07-10T13:30:24;3.53;;;1.30;;
6111;SDS011;3086;48.802;9.394;2022-07-10T13:33:47;2.93;;;1.37;;
6111;SDS011;3086;48.802;9.394;2022-07-10T13:37:08;2.23;;;0.97;;
6111;SDS011;3086;48.802;9.394;2022-07-10T13:40:32;2.23;;;1.10;;
6111;SDS011;3086;48.802;9.394;2022-07-10T13:43:54;1.37;;;1.00;;
6111;SDS011;3086;48.802;9.394;2022-07-10T13:47:16;1.60;;;1.10;;
6111;SDS011;3086;48.802;9.394;2022-07-10T13:50:39;3.60;;;1.40;;
6111;SDS011;3086;48.802;9.394;2022-07-10T13:54:01;1.83;;;1.10;;
6111;SDS011;3086;48.802;9.394;2022-07-10T13:57:24;1.83;;;1.20;;
6111;SDS011;3086;48.802;9.394;2022-07-10T14:00:46;2.87;;;1.60;;
6111;SDS011;3086;48.802;9.394;2022-07-10T14:04:08;2.67;;;1.40;;
6111;SDS011;3086;48.802;9.394;2022-07-10T14:07:30;4.80;;;1.30;;
6111;SDS011;3086;48.802;9.394;2022-07-10T14:10:52;1.67;;;1.03;;
6111;SDS011;3086;48.802;9.394;2022-07-10T14:14:14;1.40;;;1.20;;
6111;SDS011;3086;48.802;9.394;2022-07-10T14:17:35;2.07;;;1.33;;
6111;SDS011;3086;48.802;9.394;2022-07-10T14:20:57;1.57;;;1.03;;
6111;SDS011;3086;48.802;9.394;2022-07-10T14:24:25;3.17;;;0.90;;
6111;SDS011;3086;48.802;9.394;2022-07-10T14:27:47;4.47;;;1.20;;
6111;SDS011;3086;48.802;9.394;2022-07-10T14:31:09;2.17;;;1.20;;
6111;SDS011;3086;48.802;9.394;2022-07-10T14:34:30;1.80;;;1.00;;
6111;SDS011;3086;48.802;9.394;2022-07-10T14:37:52;1.37;;;1.20;;
6111;SDS011;3086;48.802;9.394;2022-07-10T14:41:15;3.03;;;1.20;;
6111;SDS011;3086;48.802;9.394;2022-07-10T14:44:37;1.57;;;1.07;;
6111;SDS011;3086;48.802;9.394;2022-07-10T14:47:58;3.07;;;1.27;;
6111;SDS011;3086;48.802;9.394;2022-07-10T14:51:20;1.73;;;1.30;;
6111;SDS011;3086;48.802;9.394;2022-07-10T14:54:42;4.13;;;1.07;;
6111;SDS011;3086;48.802;9.394;2022-07-10T14:58:05;1.70;;;1.10;;
6111;SDS011;3086;48.802;9.394;2022-07-10T15:01:27;2.23;;;1.23;;
6111;SDS011;3086;48.802;9.394;2022-07-10T15:04:48;4.87;;;2.57;;
6111;SDS011;3086;48.802;9.394;2022-07-10T15:08:10;1.83;;;1.27;;
6111;SDS011;3086;48.802;9.394;2022-07-10T15:11:32;2.57;;;1.40;;
6111;SDS011;3086;48.802;9.394;2022-07-10T15:14:55;3.53;;;1.40;;
6111;SDS011;3086;48.802;9.394;2022-07-10T15:18:17;2.70;;;1.37;;
6111;SDS011;3086;48.802;9.394;2022-07-10T15:21:38;1.50;;;0.97;;
6111;SDS011;3086;48.802;9.394;2022-07-10T15:25:00;2.77;;;1.47;;
6111;SDS011;3086;48.802;9.394;2022-07-10T15:28:21;2.57;;;1.27;;
6111;SDS011;3086;48.802;9.394;2022-07-10T15:31:44;1.17;;;0.90;;
6111;SDS011;3086;48.802;9.394;2022-07-10T15:35:06;2.47;;;1.27;;
6111;SDS011;3086;48.802;9.394;2022-07-10T15:38:29;2.13;;;1.47;;
6111;SDS011;3086;48.802;9.394;2022-07-10T15:41:51;2.70;;;1.00;;
6111;SDS011;3086;48.802;9.394;2022-07-10T15:45:12;1.83;;;0.93;;
6111;SDS011;3086;48.802;9.394;2022-07-10T15:48:35;3.07;;;1.40;;
6111;SDS011;3086;48.802;9.394;2022-07-10T15:51:58;2.10;;;1.13;;
6111;SDS011;3086;48.802;9.394;2022-07-10T15:55:20;1.47;;;1.00;;
6111;SDS011;3086;48.802;9.394;2022-07-10T15:58:42;1.53;;;1.17;;
6111;SDS011;3086;48.802;9.394;2022-07-10T16:02:05;2.67;;;1.17;;
6111;SDS011;3086;48.802;9.394;2022-07-10T16:05:27;2.67;;;1.60;;
6111;SDS011;3086;48.802;9.394;2022-07-10T16:08:49;1.93;;;1.40;;
6111;SDS011;3086;48.802;9.394;2022-07-10T16:12:11;2.87;;;1.23;;
6111;SDS011;3086;48.802;9.394;2022-07-10T16:15:32;3.13;;;1.10;;
6111;SDS011;3086;48.802;9.394;2022-07-10T16:18:54;1.83;;;1.07;;
6111;SDS011;3086;48.802;9.394;2022-07-10T16:22:17;1.83;;;1.20;;
6111;SDS011;3086;48.802;9.394;2022-07-10T16:25:38;1.70;;;1.10;;
6111;SDS011;3086;48.802;9.394;2022-07-10T16:29:20;1.83;;;1.10;;
6111;SDS011;3086;48.802;9.394;2022-07-10T16:32:45;2.10;;;1.10;;
6111;SDS011;3086;48.802;9.394;2022-07-10T16:36:07;2.37;;;1.53;;
6111;SDS011;3086;48.802;9.394;2022-07-10T16:39:30;2.50;;;1.13;;
6111;SDS011;3086;48.802;9.394;2022-07-10T16:42:52;1.63;;;1.13;;
6111;SDS011;3086;48.802;9.394;2022-07-10T16:46:13;1.63;;;0.97;;
6111;SDS011;3086;48.802;9.394;2022-07-10T16:49:35;2.90;;;1.57;;
6111;SDS011;3086;48.802;9.394;2022-07-10T16:52:56;3.17;;;1.20;;
6111;SDS011;3086;48.802;9.394;2022-07-10T16:56:19;2.67;;;1.33;;
6111;SDS011;3086;48.802;9.394;2022-07-10T16:59:42;1.43;;;1.30;;
6111;SDS011;3086;48.802;9.394;2022-07-10T17:03:03;3.00;;;1.50;;
6111;SDS011;3086;48.802;9.394;2022-07-10T17:06:25;2.20;;;1.17;;
6111;SDS011;3086;48.802;9.394;2022-07-10T17:09:46;0.93;;;0.93;;
6111;SDS011;3086;48.802;9.394;2022-07-10T17:13:09;2.30;;;1.43;;
6111;SDS011;3086;48.802;9.394;2022-07-10T17:16:32;1.33;;;1.23;;
6111;SDS011;3086;48.802;9.394;2022-07-10T17:19:53;1.30;;;1.10;;
6111;SDS011;3086;48.802;9.394;2022-07-10T17:23:15;2.20;;;1.10;;
6111;SDS011;3086;48.802;9.394;2022-07-10T17:26:37;2.57;;;1.20;;
6111;SDS011;3086;48.802;9.394;2022-07-10T17:30:00;1.33;;;1.20;;
6111;SDS011;3086;48.802;9.394;2022-07-10T17:33:21;1.60;;;1.17;;
6111;SDS011;3086;48.802;9.394;2022-07-10T17:36:43;1.67;;;1.23;;
6111;SDS011;3086;48.802;9.394;2022-07-10T17:40:05;1.70;;;1.37;;
6111;SDS011;3086;48.802;9.394;2022-07-10T17:43:28;2.60;;;1.43;;
6111;SDS011;3086;48.802;9.394;2022-07-10T17:46:50;4.07;;;1.47;;
6111;SDS011;3086;48.802;9.394;2022-07-10T17:50:12;1.90;;;1.30;;
6111;SDS011;3086;48.802;9.394;2022-07-10T17:53:34;1.60;;;1.23;;
6111;SDS011;3086;48.802;9.394;2022-07-10T17:56:56;2.27;;;1.33;;
6111;SDS011;3086;48.802;9.394;2022-07-10T18:00:17;2.37;;;1.30;;
6111;SDS011;3086;48.802;9.394;2022-07-10T18:03:40;3.43;;;1.50;;
6111;SDS011;3086;48.802;9.394;2022-07-10T18:07:02;3.77;;;1.20;;
6111;SDS011;3086;48.802;9.394;2022-07-10T18:10:24;1.80;;;1.37;;
6111;SDS011;3086;48.802;9.394;2022-07-10T18:13:45;1.70;;;1.23;;
6111;SDS011;3086;48.802;9.394;2022-07-10T18:17:07;4.00;;;1.80;;
6111;SDS011;3086;48.802;9.394;2022-07-10T18:20:31;2.27;;;1.50;;
6111;SDS011;3086;48.802;9.394;2022-07-10T18:23:54;3.03;;;1.90;;
6111;SDS011;3086;48.802;9.394;2022-07-10T18:27:19;3.20;;;1.43;;
6111;SDS011;3086;48.802;9.394;2022-07-10T18:30:41;2.97;;;1.63;;
6111;SDS011;3086;48.802;9.394;2022-07-10T18:34:02;2.97;;;1.37;;
6111;SDS011;3086;48.802;9.394;2022-07-10T18:37:43;4.03;;;1.40;;
6111;SDS011;3086;48.802;9.394;2022-07-10T18:41:04;2.70;;;1.67;;
6111;SDS011;3086;48.802;9.394;2022-07-10T18:44:26;2.23;;;1.60;;
6111;SDS011;3086;48.802;9.394;2022-07-10T18:47:48;2.30;;;1.43;;
6111;SDS011;3086;48.802;9.394;2022-07-10T18:51:10;3.70;;;1.93;;
6111;SDS011;3086;48.802;9.394;2022-07-10T18:54:33;1.47;;;1.17;;
6111;SDS011;3086;48.802;9.394;2022-07-10T18:57:54;3.43;;;1.83;;
6111;SDS011;3086;48.802;9.394;2022-07-10T19:01:16;2.57;;;1.50;;
6111;SDS011;3086;48.802;9.394;2022-07-10T19:04:39;3.20;;;1.90;;
6111;SDS011;3086;48.802;9.394;2022-07-10T19:08:00;3.67;;;2.10;;
6111;SDS011;3086;48.802;9.394;2022-07-10T19:11:23;5.10;;;1.80;;
6111;SDS011;3086;48.802;9.394;2022-07-10T19:14:45;6.17;;;1.53;;
6111;SDS011;3086;48.802;9.394;2022-07-10T19:18:07;4.33;;;1.80;;
6111;SDS011;3086;48.802;9.394;2022-07-10T19:21:28;2.93;;;1.40;;
6111;SDS011;3086;48.802;9.394;2022-07-10T19:24:50;4.73;;;2.00;;
6111;SDS011;3086;48.802;9.394;2022-07-10T19:28:13;2.37;;;1.73;;
6111;SDS011;3086;48.802;9.394;2022-07-10T19:31:34;2.60;;;1.70;;
6111;SDS011;3086;48.802;9.394;2022-07-10T19:34:56;4.20;;;2.20;;
6111;SDS011;3086;48.802;9.394;2022-07-10T19:38:18;4.10;;;2.30;;
6111;SDS011;3086;48.802;9.394;2022-07-10T19:41:41;4.67;;;2.10;;
6111;SDS011;3086;48.802;9.394;2022-07-10T19:45:04;2.70;;;2.10;;
6111;SDS011;3086;48.802;9.394;2022-07-10T19:48:26;4.67;;;2.23;;
6111;SDS011;3086;48.802;9.394;2022-07-10T19:51:48;2.93;;;2.07;;
6111;SDS011;3086;48.802;9.394;2022-07-10T19:55:10;3.20;;;1.97;;
6111;SDS011;3086;48.802;9.394;2022-07-10T19:58:31;4.97;;;2.10;;
6111;SDS011;3086;48.802;9.394;2022-07-10T20:01:54;2.43;;;2.20;;
6111;SDS011;3086;48.802;9.394;2022-07-10T20:05:16;3.13;;;1.67;;
6111;SDS011;3086;48.802;9.394;2022-07-10T20:08:37;4.63;;;2.90;;
6111;SDS011;3086;48.802;9.394;2022-07-10T20:11:59;5.80;;;3.07;;
6111;SDS011;3086;48.802;9.394;2022-07-10T20:15:20;3.93;;;2.83;;
6111;SDS011;3086;48.802;9.394;2022-07-10T20:18:43;5.23;;;3.00;;
6111;SDS011;3086;48.802;9.394;2022-07-10T20:22:06;2.60;;;2.30;;
6111;SDS011;3086;48.802;9.394;2022-07-10T20:25:28;2.43;;;2.23;;
6111;SDS011;3086;48.802;9.394;2022-07-10T20:28:50;7.43;;;2.83;;
6111;SDS011;3086;48.802;9.394;2022-07-10T20:32:13;4.20;;;2.73;;
6111;SDS011;3086;48.802;9.394;2022-07-10T20:35:36;5.27;;;3.13;;
6111;SDS011;3086;48.802;9.394;2022-07-10T20:38:57;3.37;;;2.00;;
6111;SDS011;3086;48.802;9.394;2022-07-10T20:42:18;6.10;;;2.67;;
6111;SDS011;3086;48.802;9.394;2022-07-10T20:45:40;3.20;;;2.50;;
6111;SDS011;3086;48.802;9.394;2022-07-10T20:49:01;2.57;;;2.37;;
6111;SDS011;3086;48.802;9.394;2022-07-10T20:52:24;3.13;;;2.00;;
6111;SDS011;3086;48.802;9.394;2022-07-10T20:55:46;3.73;;;2.30;;
6111;SDS011;3086;48.802;9.394;2022-07-10T20:59:07;3.13;;;1.90;;
6111;SDS011;3086;48.802;9.394;2022-07-10T21:02:29;3.20;;;2.10;;
6111;SDS011;3086;48.802;9.394;2022-07-10T21:05:50;2.57;;;1.90;;